Strona główna
METAR-TAF:

METAR-TAF

Lotnisko :

Port lotniczy Newquay

Newquay Cornwall, Anglia

Szerokość geograficzna: 50-26N, Długość geograficzna: 005-00W, wysokość: 119 m

Aktualna obserwacja pogody

Raport powstał 26 minut temu, godzina 12:20 UTC
Wiatr 5 kt od zachód, zmienny między zachodnio-południowy zachód i północny zachód
Temperatura 10°C
Wilgotność 71%
Ciśnienie 1039 hPa
Widzialność 10 km lub więcej
Mało chmury na wysokości 2500 ft

METAR: EGHQ 261220Z 28005KT 250V310 9999 FEW025 10/05 Q1039

czas: 12:46 (12:46 UTC)

Prognoza

Raport powstał 1 godzina i 41 minut temu, godzina 11:05 UTC
Prognoza ważna od 26 godzina 12 UTC do 26 godzina 21 UTC
Wiatr 5 kt od południowy zachód
Widzialność 10 km lub więcej
Mało chmury na wysokości 2000 ft

TAF: EGHQ 261105Z 2612/2621 22005KT 9999 FEW020

Obserwacja i prognoza pogody dla ponad 4000 lotnisk (raport METAR i TAF).

Dostępne stacje oznaczono żółtymi i czerwonymi punktami na mapie.

Najedź kursorem aby zobaczyć nazwę stacji.

Kliknij aby zobaczyć obserwacje i prognozy pogody.

Aby zmienić mapę: kliknij na zielony przycisk z czarnym krzyżykiem, aby powiększyć; na zielony przycisk z myślnikiem, aby pomniejszyć; na zielone strzałki, aby przejść do map sąsiednich.


METAR-TAF: